EDDL METAR and TAF | Updated Today

EDDL METAR

Düsseldorf Airport

Observation time: 16 min. ago

EDDL 061920Z AUTO 05002KT 9999 SCT017 01/01 Q1040 NOSIG

Need help? Read our tutorial on how to read METARs or read the parsed version below.

Düsseldorf Airport (EDDL) METAR

  • Weather conditions on Mon, 06 Feb 2023 19:20:00 +0000 (16 min. ago):
  • Present conditions: Dry
  • Clouds: Scattered at 518 meters
  • Visibility: Greater than 10 km
  • Wind: 50 degrees at 2 knots
  • Temperature: 1 celsius
  • Dew point: 1 celsius
  • Pressure: 1040 millibars
  • Remarks: None


Useful to know...

EDDL TAF

Düsseldorf Airport

TAF EDDL 061700Z 0618/0724 06003KT 9999 BKN035 PROB30 TEMPO 0620/0705 2000 BR BKN004 BECMG 0704/0708 12006KT
Observation time: 2:36 hr. ago
Need help? Read our tutorial on how to read TAFs or read the parsed version below.

Parsed version of TAF for Düsseldorf Airport (EDDL)

  • From 06 February at 18:00 UTC, to day 07 of the month at 24:00 UTC
  • Clouds: Broken sky at 1067 meters
  • Visibility: Greater than 10 km
  • Wind: 60 degrees at 3
  • Expected to arise temporarily, from 06 February at 20:00 UTC, to day 07 of the month at 05:00 UTC
    Probability of 30%
  • Clouds: Broken sky at 122 meters
  • Visibility: 2000 meters
  • Other: Mist
  • Expected to arise soon, from 07 February at 04:00 UTC, to day 07 of the month at 08:00 UTC
  • Wind: 120 degrees at 6